MMTO/TLC METAR and TAF weather

Enter ICAO airport designator
Station Type Date Time Source
MMTO METAR 2020/09/19 02:42 UTC NOAA

MMTO 190242Z 12004KT 5SM BKN015CB OVC070 13/10 A3036 RMK 8/36/ -RAE41 HZY


Station Type Date Time Source
MMTO Decoded METAR 2020/09/19 02:42 UTC NOAA

Toluca / Jose Maria , Mexico (MMTO) 19-21N 099-34W
Sep 18, 2020 - 10:42 PM EDT / 2020.09.19 0242 UTC
Wind: from the ESE (120 degrees) at 5 MPH (4 KT):0
Visibility: 5 mile(s):0
Sky conditions: overcast
Weather: Cumulonimbus clouds observed
Temperature: 55 F (13 C)
Dew Point: 50 F (10 C)
Relative Humidity: 81%
Pressure (altimeter): 30.36 in. Hg (1028 hPa)
ob: MMTO 190242Z 12004KT 5SM BKN015CB OVC070 13/10 A3036 RMK 8/36/ -RAE41 HZY
cycle: 2

Station Type Date Time Source
MMTO TAF 2020/09/19 06:57 UTC NOAA

TAF TAF MMTO 190254Z 1906/2012 00000KT 5SM HZ BKN015 OVC070 TX21/1920Z TN10/1912Z
TEMPO 1906/1910 4SM RA
FM191000 00000KT 3SM HZ OVC015
TEMPO 1910/1914 1SM BR OVC010
FM191800 13010KT 6SM HZ SCT015 BKN070 BKN200
TEMPO 1922/2002 5SM TSRA BKN015CB

Example: see airport list